Terminal Aerodrome Forecast
Issued by NWS Wilmington, NC

Home | Current Version | Previous Version | Text Only | Print | Product List | Glossary On
Versions: 1 2 3 4 5 6 7 8 9 10 11 12 13 14 15
000
FTUS42 KILM 231700
TAFMYR
TAF
KMYR 231720Z 2318/2418 30012KT P6SM SKC
     FM232300 02005KT P6SM SKC=

USA.gov is the U.S. government's official web portal to all federal, state and local government web resources and services.